Latest Weather Observations for Coonawarra

IDS60801

Issued at 9:31 pm CDT Saturday 28 March 2015 (issued every 30 minutes, with the page automatically refreshed every 10 minutes)

About weather observations | Map of weather stations | Latest weather observations for SA | Other Formats
Station Details ID: 026091 Name: COONAWARRA Lat: -37.29 Lon: 140.83 Height: 57.0 m
Data from the previous 72 hours. | See also: Recent months at Coonawarra
Date/Time
CDT
Temp
°C
App
Temp
°C
Dew
Point
Rel
Hum
%
Delta-T
°C
Wind Press
QNH
hPa
Press
MSL
hPa
Rain
since 9 am
mm
Dir
 
Spd
km/h
Gust
km/h
Spd
kts
Gust
kts
28/09:30pm 9.5 8.3 8.0 90 0.7 ESE 4 7 2 4 1022.4 1022.3 0.0
28/09:00pm 10.0 8.5 8.4 90 0.8 ESE 6 9 3 5 1022.3 1022.2 0.0
28/08:30pm 12.1 10.1 8.7 80 1.7 ESE 9 11 5 6 1022.1 1022.0 0.0
28/08:00pm 12.8 10.8 8.8 76 2.0 ESE 9 11 5 6 1021.9 1021.8 0.0
28/07:30pm 13.8 12.3 9.3 74 2.3 ESE 7 9 4 5 1021.9 1021.8 0.0
28/07:00pm 15.8 14.2 8.7 62 3.6 S 7 9 4 5 1021.9 1021.8 0.0
28/06:30pm 17.5 16.2 7.8 53 4.9 SSW 4 7 2 4 1022.0 1021.9 0.0
28/06:00pm 18.1 15.8 7.6 50 5.3 WNW 9 13 5 7 1022.0 1021.9 0.0
28/05:30pm 18.1 15.7 7.1 48 5.5 W 9 15 5 8 1022.1 1022.0 0.0
28/05:00pm 18.2 17.0 8.0 51 5.2 WSW 4 9 2 5 1022.3 1022.2 0.0
28/04:30pm 16.7 14.5 8.0 56 4.4 NNW 9 19 5 10 1022.6 1022.5 0.0
28/04:00pm 16.8 13.5 7.9 55 4.5 NNW 15 20 8 11 1022.8 1022.7 0.0
28/03:30pm 17.3 14.8 8.3 55 4.6 NW 11 19 6 10 1023.3 1023.3 0.0
28/03:00pm 16.4 14.0 8.5 59 4.0 NNW 11 17 6 9 1023.7 1023.6 0.0
28/02:30pm 15.9 13.4 8.2 60 3.9 NNW 11 15 6 8 1023.9 1023.8 0.0
28/02:00pm 16.1 13.8 8.9 62 3.7 NNW 11 19 6 10 1024.2 1024.1 0.0
28/01:30pm 16.1 12.8 8.2 59 4.0 NNW 15 22 8 12 1024.8 1024.7 0.0
28/01:00pm 16.1 13.5 7.7 57 4.2 NNW 11 22 6 12 1025.0 1024.9 0.0
28/12:30pm 15.6 12.9 7.3 57 4.1 NNE 11 15 6 8 1025.4 1025.3 0.0
28/12:00pm 15.9 13.9 7.2 56 4.3 NNW 7 11 4 6 1025.7 1025.6 0.0
28/11:30am 15.5 13.6 7.6 59 3.9 NNE 7 11 4 6 1026.2 1026.1 0.0
28/11:00am 15.0 13.1 7.7 61 3.6 NNW 7 15 4 8 1026.4 1026.3 0.0
28/10:30am 14.4 12.1 7.5 63 3.4 NNE 9 15 5 8 1026.5 1026.4 0.0
28/10:00am 14.1 11.6 8.3 68 2.9 N 11 15 6 8 1026.7 1026.6 0.0
28/09:30am 13.4 10.8 9.5 77 2.0 N 13 17 7 9 1027.1 1027.0 0.0
28/09:00am 12.7 11.0 10.0 84 1.4 NNE 9 11 5 6 1026.8 1026.7 0.0
28/08:30am 12.0 10.5 10.4 90 0.8 N 9 11 5 6 1026.7 1026.6 0.0
28/08:00am 11.5 10.4 10.5 94 0.5 N 7 11 4 6 1026.4 1026.3 0.0
28/07:30am 11.4 9.9 10.6 95 0.4 NNW 9 11 5 6 1026.4 1026.3 0.0
28/07:00am 11.4 10.9 10.6 95 0.4 NW 4 7 2 4 1026.0 1025.9 0.0
28/06:30am 11.5 10.0 10.7 95 0.4 N 9 13 5 7 1026.0 1025.9 0.0
28/06:00am 11.4 10.4 11.0 97 0.2 N 7 9 4 5 1025.7 1025.6 0.0
28/05:30am 11.3 10.3 10.9 97 0.2 NNW 7 11 4 6 1025.4 1025.3 0.0
28/05:00am 11.2 10.1 10.8 97 0.2 NNE 7 9 4 5 1025.3 1025.2 0.0
28/04:30am 11.1 10.2 10.5 96 0.3 NNE 6 7 3 4 1025.5 1025.4 0.0
28/04:00am 10.8 10.5 10.2 96 0.3 N 2 9 1 5 1025.7 1025.6 0.0
28/03:30am 10.9 11.1 10.5 97 0.2 CALM 0 0 0 0 1026.0 1025.9 0.0
28/03:00am 10.8 11.0 10.4 97 0.2 CALM 0 0 0 0 1026.3 1026.2 0.0
28/02:30am 10.6 10.7 10.2 97 0.2 CALM 0 0 0 0 1026.3 1026.2 0.0
28/02:00am 10.4 10.5 10.0 97 0.2 CALM 0 0 0 0 1026.4 1026.3 0.0
28/01:30am 10.8 10.9 10.2 96 0.3 CALM 0 0 0 0 1026.6 1026.5 0.0
28/01:00am 10.8 10.9 10.2 96 0.3 CALM 0 0 0 0 1026.7 1026.6 0.0
28/12:30am 10.7 10.8 10.1 96 0.3 CALM 0 0 0 0 1026.8 1026.7 0.0
28/12:00am 10.9 11.0 10.3 96 0.3 CALM 0 0 0 0 1026.8 1026.7 0.0
 
Date/Time
CDT
Temp
°C
App
Temp
°C
Dew
Point
Rel
Hum
%
Delta-T
°C
Wind Press
QNH
hPa
Press
MSL
hPa
Rain
since 9 am
mm
Dir
 
Spd
km/h
Gust
km/h
Spd
kts
Gust
kts
27/11:30pm 10.7 9.6 10.1 96 0.3 W 6 7 3 4 1026.9 1026.8 0.0
27/11:00pm 10.3 9.1 9.5 95 0.4 SSW 6 6 3 3 1027.0 1026.9 0.0
27/10:30pm 9.9 8.6 9.1 95 0.4 S 6 7 3 4 1027.1 1027.0 0.0
27/10:00pm 9.9 8.6 9.1 95 0.4 S 6 7 3 4 1027.3 1027.2 0.0
27/09:30pm 10.7 9.3 9.7 93 0.5 S 7 9 4 5 1027.2 1027.1 0.0
27/09:00pm 12.1 11.0 10.7 91 0.7 SSE 7 9 4 5 1027.2 1027.1 0.0
27/08:30pm 12.6 10.5 11.1 91 0.8 S 13 17 7 9 1027.0 1026.9 0.0
27/08:00pm 13.3 10.8 11.0 86 1.2 S 15 26 8 14 1026.8 1026.7 0.0
27/07:30pm 13.6 12.1 10.7 82 1.5 SSW 9 13 5 7 1026.6 1026.5 0.0
27/07:00pm 13.7 12.2 10.4 80 1.7 SSW 9 13 5 7 1026.4 1026.3 0.0
27/06:30pm 14.6 11.6 10.6 77 2.1 S 17 20 9 11 1026.1 1026.0 0.0
27/06:00pm 14.7 11.2 10.1 74 2.4 S 19 22 10 12 1026.0 1025.9 0.0
27/05:30pm 15.6 11.6 10.3 70 2.8 SSW 22 33 12 18 1025.8 1025.7 0.0
27/05:00pm 15.9 13.8 11.0 72 2.6 S 13 17 7 9 1025.7 1025.6 0.0
27/04:30pm 15.9 13.1 11.2 73 2.5 SW 17 22 9 12 1025.7 1025.6 0.0
27/04:00pm 15.2 14.0 11.5 78 2.0 SW 9 17 5 9 1025.8 1025.7 0.0
27/03:30pm 16.0 12.7 9.6 66 3.3 WSW 17 22 9 12 1025.8 1025.7 0.0
27/03:00pm 16.0 13.5 9.6 66 3.3 SSW 13 17 7 9 1026.0 1025.9 0.0
27/02:30pm 16.2 12.9 9.7 65 3.4 SSW 17 35 9 19 1026.2 1026.1 0.0
27/02:00pm 16.8 13.8 9.3 61 3.9 SSW 15 24 8 13 1026.4 1026.3 0.0
27/01:30pm 16.1 13.4 9.1 63 3.6 SW 13 22 7 12 1026.7 1026.6 0.0
27/01:00pm 15.1 11.1 9.0 67 3.1 SSW 20 28 11 15 1027.1 1027.0 0.0
27/12:30pm 16.4 12.7 7.8 56 4.3 SSW 17 24 9 13 1027.2 1027.1 0.0
27/12:00pm 16.0 11.8 7.3 56 4.3 SSW 19 26 10 14 1027.3 1027.2 0.0
27/11:30am 16.3 12.5 7.4 55 4.4 SSW 17 26 9 14 1027.5 1027.4 0.0
27/11:00am 15.2 11.7 8.7 65 3.3 SSW 17 24 9 13 1027.7 1027.6 0.0
27/10:30am 14.4 10.8 8.4 67 3.0 SSW 17 28 9 15 1027.7 1027.6 0.0
27/10:00am 13.7 11.0 10.2 79 1.8 SSW 15 20 8 11 1027.6 1027.5 0.0
27/09:30am 12.9 10.8 11.0 88 1.0 WSW 13 17 7 9 1027.6 1027.5 0.0
27/09:00am 11.9 10.9 10.9 94 0.5 WSW 7 11 4 6 1027.4 1027.3 3.0
27/08:30am 11.4 10.5 10.8 96 0.3 WSW 6 9 3 5 1027.2 1027.1 3.0
27/08:00am 10.9 9.3 10.3 96 0.3 W 9 11 5 6 1027.0 1026.9 3.0
27/07:30am 10.6 8.9 10.0 96 0.3 W 9 15 5 8 1026.7 1026.6 2.8
27/07:00am 10.6 8.9 10.0 96 0.3 WSW 9 13 5 7 1026.4 1026.3 2.6
27/06:30am 10.3 8.1 9.5 95 0.4 WSW 11 15 6 8 1026.1 1026.0 2.6
27/06:00am 10.5 8.4 9.7 95 0.4 W 11 13 6 7 1025.7 1025.6 2.6
27/05:30am 10.7 8.3 9.9 95 0.4 WSW 13 20 7 11 1025.6 1025.5 2.6
27/05:00am 9.6 7.3 9.0 96 0.3 W 11 15 6 8 1025.3 1025.2 2.6
27/04:30am 9.0 7.3 8.2 95 0.4 SW 7 11 4 6 1025.2 1025.1 2.6
27/04:00am 7.9 6.1 7.0 94 0.4 WNW 6 7 3 4 1025.2 1025.1 2.6
27/03:30am 9.0 7.3 8.4 96 0.3 WNW 7 9 4 5 1025.2 1025.1 2.6
27/03:00am 9.8 7.9 9.0 95 0.4 W 9 11 5 6 1025.2 1025.1 2.4
27/02:30am 10.4 8.2 9.4 93 0.5 WSW 11 13 6 7 1025.2 1025.1 2.4
27/02:00am 11.0 8.5 9.8 92 0.6 WSW 13 15 7 8 1025.3 1025.2 2.4
27/01:30am 11.2 8.8 10.0 92 0.6 W 13 20 7 11 1025.2 1025.1 2.4
27/01:00am 11.5 8.4 10.3 92 0.6 WSW 17 26 9 14 1025.1 1025.0 2.4
27/12:30am 11.3 9.0 10.3 94 0.5 WSW 13 20 7 11 1025.1 1025.0 2.4
27/12:00am 11.4 9.1 10.4 94 0.5 WSW 13 20 7 11 1025.2 1025.1 2.4
 
Date/Time
CDT
Temp
°C
App
Temp
°C
Dew
Point
Rel
Hum
%
Delta-T
°C
Wind Press
QNH
hPa
Press
MSL
hPa
Rain
since 9 am
mm
Dir
 
Spd
km/h
Gust
km/h
Spd
kts
Gust
kts
26/11:30pm 11.2 9.7 10.4 95 0.4 W 9 13 5 7 1025.2 1025.1 2.4
26/11:00pm 11.8 9.2 10.8 94 0.5 WSW 15 20 8 11 1025.3 1025.2 2.4
26/10:30pm 11.9 9.7 10.7 92 0.6 W 13 17 7 9 1025.2 1025.1 2.2
26/10:00pm 11.6 9.3 10.6 94 0.5 W 13 17 7 9 1025.1 1025.0 2.2
26/09:30pm 11.7 9.1 10.7 94 0.5 W 15 19 8 10 1024.9 1024.8 2.2
26/09:00pm 11.8 9.2 10.6 92 0.6 WSW 15 20 8 11 1024.6 1024.5 2.0
26/08:30pm 11.7 8.7 10.7 94 0.5 WSW 17 26 9 14 1024.3 1024.2 2.0
26/08:00pm 11.7 8.7 10.7 94 0.5 W 17 26 9 14 1024.1 1024.0 2.0
26/07:30pm 11.7 9.0 10.5 92 0.6 WSW 15 22 8 12 1023.8 1023.7 2.0
26/07:00pm 12.0 8.9 10.2 89 0.9 W 17 24 9 13 1023.6 1023.5 1.6
26/06:30pm 12.1 8.6 10.1 87 1.0 W 19 26 10 14 1023.1 1023.1 1.6
26/06:00pm 12.2 7.7 10.0 86 1.1 WSW 24 37 13 20 1022.9 1022.9 1.6
26/05:30pm 12.9 7.4 9.3 79 1.8 WSW 28 46 15 25 1022.5 1022.4 1.6
26/05:29pm 13.0 7.5 9.2 78 1.9 WSW 28 46 15 25 1022.5 1022.4 1.6
26/05:00pm 12.9 7.4 9.1 78 1.9 W 28 44 15 24 1022.5 1022.4 1.4
26/04:30pm 13.7 8.7 8.0 68 2.8 WSW 24 37 13 20 1022.1 1022.0 1.4
26/04:00pm 13.5 7.5 7.1 65 3.1 WSW 28 46 15 25 1021.9 1021.8 1.4
26/03:58pm 13.5 7.7 7.8 68 2.8 WSW 28 46 15 25 1021.9 1021.8 1.4
26/03:30pm 13.1 6.6 8.0 71 2.5 WSW 32 44 17 24 1021.7 1021.6 1.4
26/03:18pm 12.4 6.5 9.2 81 1.6 WSW 30 48 16 26 1021.9 1021.8 1.4
26/03:00pm 13.7 8.2 9.2 74 2.3 WSW 28 44 15 24 1021.7 1021.6 1.4
26/02:48pm 12.5 6.6 9.1 80 1.7 WSW 30 50 16 27 1021.7 1021.6 1.4
26/02:30pm 13.5 8.2 10.0 79 1.8 WSW 28 37 15 20 1021.6 1021.5 1.4
26/02:06pm 11.6 5.5 9.8 89 0.9 WSW 32 50 17 27 1022.0 1021.9 1.2
26/02:00pm 11.7 4.9 9.3 85 1.2 SW 35 50 19 27 1021.8 1021.7 0.8
26/01:38pm 15.6 9.1 6.3 54 4.5 W 30 50 16 27 1021.4 1021.3 0.4
26/01:30pm 15.3 8.4 6.4 55 4.3 W 32 48 17 26 1021.5 1021.4 0.4
26/01:01pm 12.5 6.0 8.2 75 2.1 W 32 50 17 27 1021.6 1021.5 0.4
26/01:00pm 12.7 6.2 8.0 73 2.3 W 32 43 17 23 1021.6 1021.5 0.4
26/12:30pm 14.5 8.2 7.6 63 3.4 W 30 48 16 26 1021.3 1021.2 0.2
26/12:05pm 12.6 6.2 8.6 76 2.0 W 32 50 17 27 1021.6 1021.5 0.2
26/12:00pm 11.8 4.7 8.1 78 1.8 W 35 50 19 27 1021.6 1021.5 0.2
26/11:30am 15.1 7.8 4.6 49 4.9 W 32 50 17 27 1021.0 1020.9 0.0
26/11:16am 14.0 7.4 4.2 51 4.5 WSW 28 46 15 25 1021.2 1021.1 0.0
26/11:00am 14.3 6.8 4.3 51 4.6 W 33 48 18 26 1021.2 1021.1 0.0
26/10:38am 14.0 7.3 5.8 57 3.9 W 30 50 16 27 1021.2 1021.1 0.0
26/10:30am 13.5 7.3 6.1 61 3.5 W 28 39 15 21 1021.2 1021.1 0.0
26/10:00am 12.4 6.9 6.0 65 3.0 W 24 35 13 19 1020.9 1020.8 0.0
26/09:30am 11.8 7.5 6.8 71 2.4 W 19 26 10 14 1020.6 1020.5 0.0
26/09:00am 10.1 6.3 7.4 83 1.3 WNW 17 22 9 12 1020.5 1020.4 4.2
26/08:30am 8.5 5.4 7.2 91 0.6 NNW 13 19 7 10 1020.1 1020.0 4.2
26/08:00am 7.5 4.6 6.4 93 0.5 NNW 11 15 6 8 1019.8 1019.7 4.2
26/07:30am 7.2 3.5 6.3 94 0.4 WNW 15 20 8 11 1019.7 1019.6 4.2
26/07:00am 6.3 3.6 5.4 94 0.4 N 9 13 5 7 1019.2 1019.1 4.0
26/06:30am 6.9 3.5 5.8 93 0.5 NW 13 15 7 8 1019.0 1018.9 4.0
26/06:00am 7.4 4.5 6.3 93 0.5 WNW 11 15 6 8 1018.9 1018.8 4.0
26/05:30am 7.3 4.0 6.2 93 0.5 W 13 19 7 10 1018.6 1018.5 4.0
26/05:00am 6.4 4.2 5.5 94 0.4 WSW 6 11 3 6 1018.3 1018.2 3.8
26/04:30am 5.3 2.4 4.6 95 0.3 NNW 9 11 5 6 1017.9 1017.8 3.6
26/04:00am 5.8 3.4 5.1 95 0.3 NNW 7 9 4 5 1017.7 1017.6 3.6
26/03:30am 6.2 2.7 5.3 94 0.4 NNW 13 15 7 8 1017.6 1017.5 3.6
26/03:00am 6.7 3.3 5.8 94 0.4 NNW 13 17 7 9 1017.3 1017.2 3.6
26/02:30am 6.9 3.5 6.0 94 0.4 NNW 13 17 7 9 1017.4 1017.3 3.6
26/02:00am 7.2 4.2 5.9 91 0.6 WNW 11 15 6 8 1017.4 1017.3 3.6
26/01:30am 7.9 4.6 6.4 90 0.7 WNW 13 19 7 10 1017.3 1017.2 3.6
26/01:00am 7.2 4.2 6.1 93 0.5 NW 11 15 6 8 1017.3 1017.2 3.6
26/12:30am 8.0 5.1 6.5 90 0.7 W 11 15 6 8 1017.2 1017.1 3.6
26/12:00am 8.8 4.5 7.1 89 0.8 WSW 19 24 10 13 1017.4 1017.3 3.6
 
Date/Time
CDT
Temp
°C
App
Temp
°C
Dew
Point
Rel
Hum
%
Delta-T
°C
Wind Press
QNH
hPa
Press
MSL
hPa
Rain
since 9 am
mm
Dir
 
Spd
km/h
Gust
km/h
Spd
kts
Gust
kts
25/11:30pm 7.6 5.1 6.5 93 0.5 NW 9 13 5 7 1016.9 1016.8 3.4
25/11:00pm 8.6 5.5 7.3 91 0.6 WNW 13 17 7 9 1016.9 1016.8 3.4
25/10:30pm 8.6 5.9 7.5 93 0.5 NNW 11 13 6 7 1017.0 1016.9 3.4
25/10:00pm 9.2 7.1 8.2 93 0.5 NNW 9 11 5 6 1016.6 1016.5 3.4

Other Formats:

Comma delimited format used in spreadsheet applications
http://www.bom.gov.au/fwo/IDS60801/IDS60801.94817.axf

JavaScript Object Notation format (JSON) in row-major order
http://www.bom.gov.au/fwo/IDS60801/IDS60801.94817.json